createdAt,value
2018-02-24T00:00:48.846Z,36.25
2018-02-24T00:01:52.145Z,39.17
2018-02-24T00:02:55.446Z,31.60
2018-02-24T00:03:57.965Z,32.47
2018-02-24T00:05:00.541Z,28.25
2018-02-24T00:06:03.064Z,26.33
2018-02-24T00:07:05.590Z,32.63
2018-02-24T00:08:08.881Z,32.53
2018-02-24T00:09:12.186Z,27.75
2018-02-24T00:10:14.745Z,29.95
2018-02-24T00:11:17.273Z,28.98
2018-02-24T00:12:19.810Z,30.23
2018-02-24T00:13:22.354Z,31.15
2018-02-24T00:14:24.989Z,32.30
2018-02-24T00:15:28.277Z,26.27
2018-02-24T00:16:31.579Z,31.70
2018-02-24T00:17:34.112Z,29.02
2018-02-24T00:18:36.633Z,30.62
2018-02-24T00:19:39.188Z,29.40
2018-02-24T00:20:41.778Z,27.80
2018-02-24T00:21:44.288Z,31.42
2018-02-24T00:22:47.733Z,28.10
2018-02-24T00:23:50.305Z,36.95
2018-02-24T00:24:52.837Z,31.95
2018-02-24T00:25:55.362Z,31.70
2018-02-24T00:26:57.920Z,32.50
2018-02-24T00:28:00.440Z,30.12
2018-02-24T00:29:02.965Z,28.83
2018-02-24T00:30:06.260Z,32.55
2018-02-24T00:31:09.596Z,28.58
2018-02-24T00:32:12.137Z,35.47
2018-02-24T00:33:14.659Z,34.22
2018-02-24T00:34:17.187Z,28.80
2018-02-24T00:35:19.709Z,29.42
2018-02-24T00:36:23.044Z,31.55
2018-02-24T00:37:25.636Z,32.70
2018-02-24T00:38:28.158Z,28.65
2018-02-24T00:39:30.687Z,29.02
2018-02-24T00:40:33.977Z,29.25
2018-02-24T00:41:37.268Z,29.23
2018-02-24T00:42:40.590Z,31.75
2018-02-24T00:43:43.113Z,29.10
2018-02-24T00:44:46.432Z,31.73
2018-02-24T00:45:48.952Z,44.70
2018-02-24T00:46:52.238Z,30.65
2018-02-24T00:47:55.563Z,37.50
2018-02-24T00:48:58.090Z,29.35
2018-02-24T00:50:01.380Z,33.55
2018-02-24T00:51:04.664Z,32.92
2018-02-24T00:52:07.954Z,27.17
2018-02-24T00:53:11.273Z,32.72
2018-02-24T00:54:13.792Z,30.73
2018-02-24T00:55:17.085Z,39.25
2018-02-24T00:56:20.369Z,30.67
2018-02-24T00:57:23.695Z,29.08
2018-02-24T00:58:26.292Z,31.67
2018-02-24T00:59:28.814Z,32.50
2018-02-24T01:00:31.346Z,32.03
2018-02-24T01:01:34.671Z,32.00
2018-02-24T01:02:37.210Z,29.55
2018-02-24T01:03:39.725Z,28.70
2018-02-24T01:04:42.308Z,32.40
2018-02-24T01:05:44.828Z,32.00
2018-02-24T01:06:47.358Z,31.20
2018-02-24T01:07:50.648Z,31.23
2018-02-24T01:08:53.944Z,34.28
2018-02-24T01:09:56.508Z,29.17
2018-02-24T01:10:59.044Z,34.03
2018-02-24T01:12:01.567Z,32.05
2018-02-24T01:13:04.090Z,34.30
2018-02-24T01:14:07.373Z,38.60
2018-02-24T01:15:10.721Z,31.45
2018-02-24T01:16:13.251Z,30.60
2018-02-24T01:17:15.778Z,37.15
2018-02-24T01:18:18.300Z,32.53
2018-02-24T01:19:20.880Z,31.98
2018-02-24T01:20:23.414Z,32.40
2018-02-24T01:21:25.946Z,37.42
2018-02-24T01:22:28.469Z,32.75
2018-02-24T01:23:30.990Z,34.88
2018-02-24T01:24:34.313Z,32.22
2018-02-24T01:25:36.877Z,32.70
2018-02-24T01:26:39.401Z,31.20
2018-02-24T01:27:42.684Z,35.45
2018-02-24T01:28:45.980Z,31.90
2018-02-24T01:29:49.311Z,42.60
2018-02-24T01:30:51.825Z,36.58
2018-02-24T01:31:55.118Z,37.90
2018-02-24T01:32:57.657Z,35.95
2018-02-24T01:34:00.176Z,41.17
2018-02-24T01:35:02.736Z,27.62
2018-02-24T01:36:05.273Z,32.55
2018-02-24T01:37:08.581Z,40.30
2018-02-24T01:38:11.096Z,31.42
2018-02-24T01:39:13.621Z,34.33
2018-02-24T01:40:16.184Z,36.28
2018-02-24T01:41:18.710Z,33.20
2018-02-24T01:42:21.261Z,31.60
2018-02-24T01:43:23.786Z,31.15
2018-02-24T01:44:26.324Z,36.10
2018-02-24T01:45:29.646Z,33.42
2018-02-24T01:46:32.785Z,34.13
2018-02-24T01:47:36.128Z,28.20
2018-02-24T01:48:38.650Z,31.12
2018-02-24T01:49:41.172Z,30.52
2018-02-24T01:50:43.705Z,32.45
2018-02-24T01:51:46.241Z,31.25
2018-02-24T01:52:49.564Z,33.22
2018-02-24T01:53:52.088Z,36.95
2018-02-24T01:54:55.441Z,30.17
2018-02-24T01:55:57.970Z,32.85
2018-02-24T01:57:00.501Z,30.35
2018-02-24T01:58:03.793Z,30.98
2018-02-24T01:59:07.085Z,33.38
2018-02-24T02:00:09.638Z,37.05
2018-02-24T02:01:12.957Z,33.35
2018-02-24T02:02:15.490Z,34.58
2018-02-24T02:03:18.913Z,31.52
2018-02-24T02:04:21.441Z,31.65
2018-02-24T02:05:24.761Z,32.50
2018-02-24T02:06:27.282Z,30.08
2018-02-24T02:07:30.612Z,37.15
2018-02-24T02:08:33.134Z,30.20
2018-02-24T02:09:36.426Z,28.40
2018-02-24T02:10:39.717Z,34.33
2018-02-24T02:11:43.041Z,34.42
2018-02-24T02:12:45.558Z,32.50
2018-02-24T02:13:48.849Z,32.65
2018-02-24T02:14:52.138Z,33.30
2018-02-24T02:15:54.662Z,31.50
2018-02-24T02:16:57.223Z,33.90
2018-02-24T02:17:59.748Z,31.80
2018-02-24T02:19:02.278Z,30.77
2018-02-24T02:20:04.805Z,34.90
2018-02-24T02:21:07.370Z,33.30
2018-02-24T02:22:09.902Z,28.40
2018-02-24T02:23:12.424Z,34.05
2018-02-24T02:24:14.958Z,28.87
2018-02-24T02:25:17.490Z,33.85
2018-02-24T02:26:20.809Z,36.08
2018-02-24T02:27:23.367Z,34.50
2018-02-24T02:28:25.894Z,36.08
2018-02-24T02:29:29.190Z,31.60
2018-02-24T02:30:32.517Z,31.80
2018-02-24T02:31:35.059Z,32.60
2018-02-24T02:32:37.626Z,31.67
2018-02-24T02:33:40.160Z,29.60
2018-02-24T02:34:43.459Z,32.92
2018-02-24T02:35:45.989Z,30.27
2018-02-24T02:36:48.525Z,30.42
2018-02-24T02:37:51.092Z,32.90
2018-02-24T02:38:53.622Z,31.50
2018-02-24T02:39:56.914Z,30.25
2018-02-24T02:40:59.607Z,31.92
2018-02-24T02:42:02.126Z,29.87
2018-02-24T02:43:05.426Z,30.62
2018-02-24T02:44:08.750Z,30.42
2018-02-24T02:45:11.327Z,28.73
2018-02-24T02:46:13.859Z,29.55
2018-02-24T02:47:16.387Z,33.38
2018-02-24T02:48:18.909Z,39.63
2018-02-24T02:49:21.557Z,30.92
2018-02-24T02:50:24.133Z,30.27
2018-02-24T02:51:26.665Z,33.05
2018-02-24T02:52:29.966Z,35.33
2018-02-24T02:53:32.530Z,33.60
2018-02-24T02:54:35.817Z,29.87
2018-02-24T02:55:39.135Z,31.45
2018-02-24T02:56:41.653Z,33.33
2018-02-24T02:57:44.939Z,26.55
2018-02-24T02:58:48.228Z,29.95
2018-02-24T02:59:51.553Z,31.12
2018-02-24T03:00:54.114Z,28.30
2018-02-24T03:01:56.640Z,31.85
2018-02-24T03:02:59.938Z,35.55
2018-02-24T03:04:02.489Z,30.25
2018-02-24T03:05:05.782Z,30.90
2018-02-24T03:06:09.103Z,27.95
2018-02-24T03:07:11.637Z,33.58
2018-02-24T03:08:14.185Z,32.80
2018-02-24T03:09:17.471Z,31.98
2018-02-24T03:10:20.770Z,33.85
2018-02-24T03:11:23.326Z,29.58
2018-02-24T03:12:26.657Z,32.97
2018-02-24T03:13:29.233Z,37.38
2018-02-24T03:14:31.754Z,28.17
2018-02-24T03:15:34.278Z,30.73
2018-02-24T03:16:36.808Z,32.38
2018-02-24T03:17:39.362Z,29.85
2018-02-24T03:18:41.885Z,33.33
2018-02-24T03:19:44.411Z,30.98
2018-02-24T03:20:46.954Z,30.30
2018-02-24T03:21:49.500Z,28.62
2018-02-24T03:22:52.784Z,37.33
2018-02-24T03:23:56.073Z,32.65
2018-02-24T03:24:59.400Z,31.17
2018-02-24T03:26:01.916Z,33.22
2018-02-24T03:27:04.481Z,35.47
2018-02-24T03:28:07.001Z,31.25
2018-02-24T03:29:09.533Z,28.33
2018-02-24T03:30:12.814Z,30.70
2018-02-24T03:31:15.341Z,33.08
2018-02-24T03:32:17.904Z,31.67
2018-02-24T03:33:20.429Z,30.35
2018-02-24T03:34:22.994Z,29.87
2018-02-24T03:35:25.528Z,38.88
2018-02-24T03:36:28.839Z,28.92
2018-02-24T03:37:31.361Z,27.13
2018-02-24T03:38:33.898Z,31.27
2018-02-24T03:39:36.469Z,39.00
2018-02-24T03:40:38.993Z,29.90
2018-02-24T03:41:42.312Z,30.50
2018-02-24T03:42:44.839Z,26.15
2018-02-24T03:43:48.125Z,29.95
2018-02-24T03:44:51.420Z,31.05
2018-02-24T03:46:00.494Z,29.92
2018-02-24T03:47:03.049Z,30.35
2018-02-24T03:48:05.580Z,30.42
2018-02-24T03:49:08.097Z,29.33
2018-02-24T03:50:10.629Z,32.22
2018-02-24T03:51:13.155Z,30.37
2018-02-24T03:52:16.480Z,31.98
2018-02-24T03:53:19.009Z,29.05
2018-02-24T03:54:22.295Z,32.60
2018-02-24T03:55:25.583Z,35.13
2018-02-24T03:56:28.115Z,27.70
2018-02-24T03:57:30.677Z,27.60
2018-02-24T03:58:33.206Z,32.28
2018-02-24T03:59:35.788Z,27.60
2018-02-24T04:00:38.325Z,26.37
2018-02-24T04:01:40.850Z,41.15
2018-02-24T04:02:43.392Z,29.20
2018-02-24T04:03:45.918Z,31.60
2018-02-24T04:04:48.485Z,25.90
2018-02-24T04:05:51.012Z,33.28
2018-02-24T04:06:53.546Z,31.58
2018-02-24T04:07:56.073Z,32.35
2018-02-24T04:08:58.604Z,31.80
2018-02-24T04:10:01.158Z,34.10
2018-02-24T04:11:03.681Z,39.63
2018-02-24T04:12:06.210Z,28.00
2018-02-24T04:13:08.737Z,34.58
2018-02-24T04:14:11.285Z,33.55
2018-02-24T04:15:13.805Z,32.97
2018-02-24T04:16:16.325Z,29.33
2018-02-24T04:17:18.853Z,32.35
2018-02-24T04:18:22.147Z,30.52
2018-02-24T04:19:25.465Z,32.72
2018-02-24T04:20:27.996Z,30.62
2018-02-24T04:21:31.289Z,31.55
2018-02-24T04:22:34.577Z,30.62
2018-02-24T04:23:37.098Z,32.10
2018-02-24T04:24:39.641Z,29.08
2018-02-24T04:25:42.213Z,30.23
2018-02-24T04:26:44.765Z,31.50
2018-02-24T04:27:47.293Z,30.92
2018-02-24T04:28:50.580Z,36.10
2018-02-24T04:29:53.861Z,29.95
2018-02-24T04:30:57.189Z,28.77
2018-02-24T04:31:59.713Z,29.02
2018-02-24T04:33:03.020Z,29.98
2018-02-24T04:34:05.547Z,30.70
2018-02-24T04:35:08.850Z,39.00
2018-02-24T04:36:12.185Z,32.00
2018-02-24T04:37:15.526Z,29.95
2018-02-24T04:38:18.059Z,31.15
2018-02-24T04:39:20.609Z,35.03
2018-02-24T04:40:23.137Z,26.23
2018-02-24T04:41:25.669Z,25.48
2018-02-24T04:42:28.991Z,29.00
2018-02-24T04:43:31.516Z,36.78
2018-02-24T04:44:34.046Z,31.50
2018-02-24T04:45:36.561Z,35.67
2018-02-24T04:46:39.858Z,32.55
2018-02-24T04:47:42.421Z,32.15
2018-02-24T04:48:44.956Z,28.45
2018-02-24T04:49:47.493Z,30.42
2018-02-24T04:50:50.013Z,32.20
2018-02-24T04:51:53.300Z,30.55
2018-02-24T04:52:56.593Z,35.63
2018-02-24T04:53:59.116Z,29.73
2018-02-24T04:55:01.713Z,32.20
2018-02-24T04:56:05.099Z,34.25
2018-02-24T04:57:08.408Z,27.80
2018-02-24T04:58:10.929Z,26.75
2018-02-24T04:59:13.453Z,40.75
2018-02-24T05:00:16.005Z,29.95
2018-02-24T05:01:18.530Z,27.20
2018-02-24T05:02:21.061Z,29.02
2018-02-24T05:03:23.580Z,27.55
2018-02-24T05:04:26.901Z,28.30
2018-02-24T05:05:29.429Z,30.75
2018-02-24T05:06:33.296Z,34.17
2018-02-24T05:07:35.829Z,29.52
2018-02-24T05:08:38.353Z,28.62
2018-02-24T05:09:41.664Z,27.50
2018-02-24T05:10:44.180Z,32.05
2018-02-24T05:11:46.700Z,30.77
2018-02-24T05:12:49.235Z,30.60
2018-02-24T05:13:52.522Z,30.45
2018-02-24T05:14:55.836Z,32.92
2018-02-24T05:15:58.357Z,30.73
2018-02-24T05:17:00.897Z,26.33
2018-02-24T05:18:03.471Z,28.27
2018-02-24T05:19:06.029Z,26.98
2018-02-24T05:20:08.547Z,33.95
2018-02-24T05:21:11.078Z,34.35
2018-02-24T05:22:13.610Z,31.80
2018-02-24T05:23:16.141Z,32.92
2018-02-24T05:24:18.700Z,33.30
2018-02-24T05:25:22.001Z,35.20
2018-02-24T05:26:24.581Z,31.00
2018-02-24T05:27:27.132Z,31.75
2018-02-24T05:28:29.675Z,27.87
2018-02-24T05:29:32.254Z,29.40
2018-02-24T05:30:35.558Z,31.83
2018-02-24T05:31:38.081Z,34.10
2018-02-24T05:32:40.632Z,36.10
2018-02-24T05:33:43.162Z,26.70
2018-02-24T05:34:45.722Z,29.08
2018-02-24T05:35:48.244Z,29.70
2018-02-24T05:36:50.781Z,32.08
2018-02-24T05:37:53.313Z,27.75
2018-02-24T05:38:55.874Z,35.28
2018-02-24T05:39:58.404Z,29.73
2018-02-24T05:41:00.924Z,31.37
2018-02-24T05:42:03.449Z,26.35
2018-02-24T05:43:06.001Z,38.25
2018-02-24T05:44:08.525Z,28.23
2018-02-24T05:45:11.082Z,30.05
2018-02-24T05:46:13.606Z,35.72
2018-02-24T05:47:16.141Z,26.20
2018-02-24T05:48:18.667Z,29.90
2018-02-24T05:49:22.118Z,28.25
2018-02-24T05:50:24.672Z,32.75
2018-02-24T05:51:27.192Z,27.92
2018-02-24T05:52:29.714Z,33.85
2018-02-24T05:53:32.238Z,32.63
2018-02-24T05:54:34.769Z,35.15
2018-02-24T05:55:38.076Z,31.87
2018-02-24T05:56:40.609Z,30.30
2018-02-24T05:57:43.140Z,32.83
2018-02-24T05:58:45.671Z,33.78
2018-02-24T05:59:48.234Z,30.12
2018-02-24T06:00:51.516Z,29.65
2018-02-24T06:01:54.805Z,31.65
2018-02-24T06:02:57.337Z,31.40
2018-02-24T06:03:59.882Z,31.27
2018-02-24T06:05:02.418Z,31.70
2018-02-24T06:06:04.949Z,33.05
2018-02-24T06:07:08.242Z,30.20
2018-02-24T06:08:11.540Z,32.42
2018-02-24T06:09:14.099Z,27.85
2018-02-24T06:10:17.392Z,32.63
2018-02-24T06:11:19.916Z,32.58
2018-02-24T06:12:22.444Z,31.42
2018-02-24T06:13:24.966Z,32.03
2018-02-24T06:14:28.283Z,31.05
2018-02-24T06:15:30.841Z,24.02
2018-02-24T06:16:34.068Z,28.33
2018-02-24T06:17:37.370Z,31.30
2018-02-24T06:18:39.897Z,32.22
2018-02-24T06:19:42.445Z,28.33
2018-02-24T06:20:45.117Z,25.80
2018-02-24T06:21:47.661Z,32.92
2018-02-24T06:22:50.957Z,28.10
2018-02-24T06:23:53.495Z,29.83
2018-02-24T06:24:56.813Z,28.55
2018-02-24T06:25:59.352Z,28.80
2018-02-24T06:27:02.662Z,33.70
2018-02-24T06:28:05.186Z,28.58
2018-02-24T06:29:07.721Z,27.90
2018-02-24T06:30:10.250Z,26.58
2018-02-24T06:31:12.816Z,28.08
2018-02-24T06:32:16.121Z,36.17
2018-02-24T06:33:18.650Z,26.33
2018-02-24T06:34:21.949Z,27.77
2018-02-24T06:35:25.358Z,29.98
2018-02-24T06:36:27.923Z,32.83
2018-02-24T06:37:30.488Z,30.40
2018-02-24T06:38:33.008Z,30.37
2018-02-24T06:39:35.581Z,34.63
2018-02-24T06:40:38.081Z,34.08
2018-02-24T06:41:40.635Z,30.27
2018-02-24T06:42:43.162Z,29.67
2018-02-24T06:43:45.686Z,26.67
2018-02-24T06:44:48.212Z,29.95
2018-02-24T06:45:51.501Z,36.92
2018-02-24T06:46:54.813Z,33.38
2018-02-24T06:47:57.336Z,25.20
2018-02-24T06:48:59.863Z,30.75
2018-02-24T06:50:02.394Z,38.13
2018-02-24T06:51:05.690Z,32.13
2018-02-24T06:52:08.235Z,32.40
2018-02-24T06:53:11.518Z,30.40
2018-02-24T06:54:14.817Z,30.70
2018-02-24T06:55:18.106Z,31.27
2018-02-24T06:56:20.641Z,31.87
2018-02-24T06:57:23.198Z,36.13
2018-02-24T06:58:25.746Z,33.67
2018-02-24T06:59:28.281Z,31.92
2018-02-24T07:00:30.850Z,28.98
2018-02-24T07:01:33.378Z,31.35
2018-02-24T07:02:35.925Z,30.92
2018-02-24T07:03:38.450Z,31.90
2018-02-24T07:04:40.978Z,28.67
2018-02-24T07:05:44.321Z,35.13
2018-02-24T07:06:46.902Z,31.30
2018-02-24T07:07:49.432Z,30.20
2018-02-24T07:08:51.962Z,32.35
2018-02-24T07:09:55.250Z,28.08
2018-02-24T07:10:58.571Z,35.78
2018-02-24T07:12:01.111Z,41.85
2018-02-24T07:13:04.472Z,38.10
2018-02-24T07:14:07.014Z,29.87
2018-02-24T07:15:09.554Z,30.23
2018-02-24T07:16:12.130Z,36.33
2018-02-24T07:17:14.662Z,34.15
2018-02-24T07:18:17.950Z,30.62
2018-02-24T07:19:20.482Z,36.20
2018-02-24T07:20:23.002Z,33.92
2018-02-24T07:21:25.566Z,32.00
2018-02-24T07:22:28.093Z,35.08
2018-02-24T07:23:31.414Z,30.12
2018-02-24T07:24:33.944Z,30.65
2018-02-24T07:25:36.486Z,33.63
2018-02-24T07:26:39.045Z,29.40
2018-02-24T07:27:41.590Z,27.67
2018-02-24T07:28:44.117Z,43.13
2018-02-24T07:29:47.416Z,35.22
2018-02-24T07:30:49.947Z,33.97
2018-02-24T07:31:52.501Z,34.35
2018-02-24T07:32:55.033Z,34.60
2018-02-24T07:33:57.556Z,32.15
2018-02-24T07:35:00.107Z,35.20
2018-02-24T07:36:02.637Z,30.15
2018-02-24T07:37:05.196Z,34.38
2018-02-24T07:38:07.725Z,31.92
2018-02-24T07:39:11.168Z,24.98
2018-02-24T07:40:13.697Z,36.92
2018-02-24T07:41:16.268Z,31.33
2018-02-24T07:42:18.794Z,30.00
2018-02-24T07:43:21.314Z,36.72
2018-02-24T07:44:23.849Z,45.60
2018-02-24T07:45:27.147Z,38.22
2018-02-24T07:46:29.690Z,34.30
2018-02-24T07:47:32.222Z,34.58
2018-02-24T07:48:34.761Z,32.47
2018-02-24T07:49:37.326Z,31.08
2018-02-24T07:50:39.852Z,35.38
2018-02-24T07:51:42.405Z,32.55
2018-02-24T07:52:44.936Z,35.83
2018-02-24T07:53:47.472Z,42.35
2018-02-24T07:54:50.763Z,32.40
2018-02-24T07:55:53.288Z,33.58
2018-02-24T07:56:55.837Z,28.42
2018-02-24T07:57:58.386Z,30.45
2018-02-24T07:59:00.913Z,27.42
2018-02-24T08:00:04.201Z,32.80
2018-02-24T08:01:07.513Z,25.40
2018-02-24T08:02:10.042Z,38.65
2018-02-24T08:03:13.366Z,29.48
2018-02-24T08:04:15.894Z,30.42
2018-02-24T08:05:19.186Z,27.85
2018-02-24T08:06:22.505Z,26.45
2018-02-24T08:07:25.036Z,25.70
2018-02-24T08:08:27.576Z,28.67
2018-02-24T08:09:30.137Z,28.45
2018-02-24T08:10:32.656Z,32.67
2018-02-24T08:11:35.197Z,31.50
2018-02-24T08:12:38.506Z,25.70
2018-02-24T08:13:41.036Z,24.80
2018-02-24T08:14:44.330Z,27.40
2018-02-24T08:15:47.635Z,31.62
2018-02-24T08:16:51.332Z,29.08
2018-02-24T08:17:53.854Z,25.67
2018-02-24T08:18:56.376Z,27.20
2018-02-24T08:19:58.897Z,26.77
2018-02-24T08:21:02.205Z,25.27
2018-02-24T08:22:04.814Z,35.17
2018-02-24T08:23:07.400Z,27.10
2018-02-24T08:24:09.939Z,34.17
2018-02-24T08:25:12.470Z,25.15
2018-02-24T08:26:14.988Z,25.95
2018-02-24T08:27:17.514Z,25.88
2018-02-24T08:28:20.066Z,26.77
2018-02-24T08:29:22.594Z,26.35
2018-02-24T08:30:25.124Z,28.08
2018-02-24T08:31:27.694Z,43.58
2018-02-24T08:32:30.223Z,35.72
2018-02-24T08:33:33.546Z,25.23
2018-02-24T08:34:36.074Z,30.08
2018-02-24T08:35:39.392Z,73.00
2018-02-24T08:36:41.914Z,49.88
2018-02-24T08:37:45.209Z,38.65
2018-02-24T08:38:47.742Z,25.65
2018-02-24T08:39:50.303Z,26.48
2018-02-24T08:40:52.906Z,22.92
2018-02-24T08:41:56.198Z,23.77
2018-02-24T08:42:58.729Z,23.15
2018-02-24T08:44:01.261Z,29.50
2018-02-24T08:45:03.810Z,23.83
2018-02-24T08:46:06.365Z,25.65
2018-02-24T08:47:08.926Z,25.92
2018-02-24T08:48:12.213Z,25.85
2018-02-24T08:49:15.505Z,25.80
2018-02-24T08:50:18.035Z,27.90
2018-02-24T08:51:20.566Z,37.58
2018-02-24T08:52:23.116Z,37.90
2018-02-24T08:53:25.641Z,31.95
2018-02-24T08:54:28.936Z,28.33
2018-02-24T08:55:32.389Z,26.37
2018-02-24T08:56:34.922Z,28.02
2018-02-24T08:57:37.474Z,29.75
2018-02-24T08:58:40.005Z,29.37
2018-02-24T08:59:42.584Z,29.52
2018-02-24T09:00:45.885Z,28.33
2018-02-24T09:01:48.411Z,29.67
2018-02-24T09:02:50.959Z,25.55
2018-02-24T09:03:53.495Z,27.90
2018-02-24T09:04:56.045Z,26.30
2018-02-24T09:05:59.337Z,25.00
2018-02-24T09:07:01.857Z,28.38
2018-02-24T09:08:04.381Z,27.58
2018-02-24T09:09:06.904Z,25.73
2018-02-24T09:10:09.459Z,27.98
2018-02-24T09:11:11.982Z,35.95
2018-02-24T09:12:14.510Z,26.77
2018-02-24T09:13:17.825Z,23.33
2018-02-24T09:14:20.354Z,27.37
2018-02-24T09:15:22.881Z,26.25
2018-02-24T09:16:25.430Z,28.80
2018-02-24T09:17:27.953Z,26.08
2018-02-24T09:18:31.262Z,24.95
2018-02-24T09:19:33.809Z,17.85
2018-02-24T09:20:37.112Z,24.08
2018-02-24T09:21:39.657Z,23.23
2018-02-24T09:22:42.953Z,16.23
2018-02-24T09:23:46.238Z,16.58
2018-02-24T09:24:49.551Z,18.10
2018-02-24T09:25:52.074Z,5.55
2018-02-24T09:26:55.353Z,3.78
2018-02-24T09:27:57.901Z,7.47
2018-02-24T09:29:00.432Z,11.20
2018-02-24T09:30:02.953Z,8.25
2018-02-24T09:31:05.475Z,5.70
2018-02-24T09:32:07.997Z,6.50
2018-02-24T09:33:11.334Z,7.55
2018-02-24T09:34:13.852Z,3.33
2018-02-24T09:35:17.216Z,6.40
2018-02-24T09:36:19.755Z,4.18
2018-02-24T09:37:23.041Z,5.22
2018-02-24T09:38:25.557Z,3.85
2018-02-24T09:39:28.105Z,4.68
2018-02-24T09:40:31.389Z,4.43
2018-02-24T09:41:34.733Z,4.62
2018-02-24T09:42:37.277Z,5.18
2018-02-24T09:43:39.788Z,3.95
2018-02-24T09:44:42.324Z,4.07
2018-02-24T09:45:44.832Z,3.90
2018-02-24T09:46:47.346Z,8.70
2018-02-24T09:47:49.864Z,4.57
2018-02-24T09:48:52.416Z,4.90
2018-02-24T09:49:54.926Z,5.97
2018-02-24T09:50:57.444Z,6.10
2018-02-24T09:51:59.963Z,5.55
2018-02-24T09:53:02.484Z,6.97
2018-02-24T09:54:05.018Z,5.82
2018-02-24T09:55:07.532Z,4.20
2018-02-24T09:56:10.813Z,6.62
2018-02-24T09:57:14.100Z,4.37
2018-02-24T09:58:17.381Z,4.97
2018-02-24T09:59:20.675Z,6.87
2018-02-24T10:00:23.949Z,4.65
2018-02-24T10:01:27.232Z,4.10
2018-02-24T10:02:30.515Z,6.28
2018-02-24T10:03:33.801Z,5.50
2018-02-24T10:04:37.119Z,6.40
2018-02-24T10:05:39.635Z,6.30
2018-02-24T10:06:42.180Z,5.50
2018-02-24T10:07:44.692Z,4.80
2018-02-24T10:08:47.974Z,5.15
2018-02-24T10:09:51.262Z,7.85
2018-02-24T10:10:54.541Z,9.35
2018-02-24T10:11:57.847Z,8.02
2018-02-24T10:13:00.362Z,12.20
2018-02-24T10:14:02.910Z,10.82
2018-02-24T10:15:05.442Z,7.90
2018-02-24T10:16:07.958Z,8.02
2018-02-24T10:17:10.474Z,8.18
2018-02-24T10:18:12.990Z,10.20
2018-02-24T10:19:15.554Z,6.55
2018-02-24T10:20:18.071Z,9.93
2018-02-24T10:21:20.595Z,13.73
2018-02-24T10:22:23.114Z,9.05
2018-02-24T10:23:25.635Z,10.07
2018-02-24T10:24:28.181Z,9.05
2018-02-24T10:25:30.710Z,13.30
2018-02-24T10:26:33.228Z,12.98
2018-02-24T10:27:35.753Z,15.85
2018-02-24T10:28:38.314Z,8.82
2018-02-24T10:29:40.838Z,12.50
2018-02-24T10:30:44.145Z,11.12
2018-02-24T10:31:46.665Z,11.85
2018-02-24T10:32:49.187Z,11.70
2018-02-24T10:33:51.702Z,8.90
2018-02-24T10:34:54.214Z,10.07
2018-02-24T10:35:56.757Z,10.15
2018-02-24T10:37:00.041Z,12.88
2018-02-24T10:38:03.338Z,12.90
2018-02-24T10:39:05.860Z,12.63
2018-02-24T10:40:08.384Z,12.43
2018-02-24T10:41:10.930Z,14.63
2018-02-24T10:42:13.458Z,14.50
2018-02-24T10:43:15.982Z,12.57
2018-02-24T10:44:18.504Z,14.27
2018-02-24T10:45:21.238Z,17.98
2018-02-24T10:46:23.769Z,13.13
2018-02-24T10:47:26.297Z,15.38
2018-02-24T10:48:28.853Z,13.25
2018-02-24T10:49:31.368Z,15.75
2018-02-24T10:50:33.921Z,14.30
2018-02-24T10:51:37.206Z,14.07
2018-02-24T10:52:40.489Z,12.63
2018-02-24T10:53:43.784Z,12.85
2018-02-24T10:54:46.350Z,11.93
2018-02-24T10:55:48.879Z,13.73
2018-02-24T10:56:51.401Z,12.55
2018-02-24T10:57:53.966Z,12.23
2018-02-24T10:58:56.489Z,11.65
2018-02-24T10:59:59.009Z,13.98
2018-02-24T11:01:01.533Z,13.20
2018-02-24T11:02:04.822Z,13.62
2018-02-24T11:03:08.169Z,12.60
2018-02-24T11:04:10.687Z,16.40
2018-02-24T11:05:13.209Z,17.75
2018-02-24T11:06:15.730Z,13.02
2018-02-24T11:07:18.249Z,15.52
2018-02-24T11:08:20.797Z,21.12
2018-02-24T11:09:23.348Z,11.63
2018-02-24T11:10:25.873Z,13.57
2018-02-24T11:11:28.389Z,10.80
2018-02-24T11:12:30.897Z,11.90
2018-02-24T11:13:34.201Z,12.68
2018-02-24T11:14:36.718Z,14.15
2018-02-24T11:15:39.249Z,14.35
2018-02-24T11:16:41.765Z,11.95
2018-02-24T11:17:44.304Z,12.52
2018-02-24T11:18:46.852Z,13.90
2018-02-24T11:19:49.378Z,12.23
2018-02-24T11:20:52.698Z,15.00
2018-02-24T11:21:55.221Z,13.95
2018-02-24T11:22:58.546Z,12.02
2018-02-24T11:24:01.079Z,14.93
2018-02-24T11:25:04.384Z,13.68
2018-02-24T11:26:06.929Z,9.13
2018-02-24T11:27:10.227Z,10.32
2018-02-24T11:28:12.741Z,8.95
2018-02-24T11:29:15.256Z,10.57
2018-02-24T11:30:17.775Z,9.25
2018-02-24T11:31:20.371Z,21.40
2018-02-24T11:32:22.863Z,15.05
2018-02-24T11:33:25.373Z,9.63
2018-02-24T11:34:27.890Z,17.70
2018-02-24T11:35:30.449Z,14.38
2018-02-24T11:36:33.316Z,10.75
2018-02-24T11:37:36.600Z,8.60
2018-02-24T11:38:39.890Z,11.18
2018-02-24T11:39:42.398Z,8.40
2018-02-24T11:40:44.941Z,9.93
2018-02-24T11:41:47.463Z,8.15
2018-02-24T11:42:50.009Z,11.23
2018-02-24T11:43:52.523Z,11.48
2018-02-24T11:44:55.065Z,7.68
2018-02-24T11:45:57.608Z,9.68
2018-02-24T11:47:00.132Z,10.30
2018-02-24T11:48:02.649Z,8.98
2018-02-24T11:49:05.173Z,10.70
2018-02-24T11:50:07.741Z,8.00
2018-02-24T11:51:10.269Z,12.63
2018-02-24T11:52:13.551Z,6.32
2018-02-24T11:53:16.838Z,13.55
2018-02-24T11:54:20.129Z,8.82
2018-02-24T11:55:23.415Z,12.15
2018-02-24T11:56:25.953Z,9.40
2018-02-24T11:57:28.474Z,8.45
2018-02-24T11:58:30.980Z,5.90
2018-02-24T11:59:33.505Z,8.50
2018-02-24T12:00:36.022Z,8.00
2018-02-24T12:01:38.561Z,8.73
2018-02-24T12:02:41.078Z,6.82
2018-02-24T12:03:43.593Z,6.28
2018-02-24T12:04:46.104Z,7.43
2018-02-24T12:05:48.626Z,9.60
2018-02-24T12:06:51.165Z,7.68
2018-02-24T12:07:53.685Z,19.20
2018-02-24T12:08:56.975Z,47.60
2018-02-24T12:10:00.256Z,48.92
2018-02-24T12:11:03.631Z,36.50
2018-02-24T12:12:06.161Z,11.57
2018-02-24T12:13:08.673Z,11.10
2018-02-24T12:14:11.952Z,9.23
2018-02-24T12:15:15.238Z,13.85
2018-02-24T12:16:18.554Z,13.02
2018-02-24T12:17:21.069Z,14.90
2018-02-24T12:18:23.585Z,13.10
2018-02-24T12:19:26.153Z,10.63
2018-02-24T12:20:28.665Z,8.13
2018-02-24T12:21:31.224Z,13.18
2018-02-24T12:22:33.741Z,36.53
2018-02-24T12:23:36.256Z,17.40
2018-02-24T12:24:38.769Z,9.88
2018-02-24T12:25:41.278Z,8.48
2018-02-24T12:26:43.830Z,6.18
2018-02-24T12:28:55.970Z,8.80
2018-02-24T12:29:58.481Z,8.35
2018-02-24T12:31:01.037Z,11.15
2018-02-24T12:32:03.557Z,7.75
2018-02-24T12:33:06.070Z,9.68
2018-02-24T12:34:08.587Z,7.87
2018-02-24T12:35:11.111Z,5.28
2018-02-24T12:36:13.660Z,8.75
2018-02-24T12:37:16.168Z,5.18
2018-02-24T12:38:18.742Z,4.85
2018-02-24T12:39:21.256Z,6.05
2018-02-24T12:40:23.773Z,6.87
2018-02-24T12:41:26.365Z,4.80
2018-02-24T12:42:29.653Z,6.78
2018-02-24T12:43:32.932Z,6.07
2018-02-24T12:44:35.485Z,7.30
2018-02-24T12:45:38.005Z,7.05
2018-02-24T12:46:40.564Z,4.68
2018-02-24T12:47:43.817Z,4.82
2018-02-24T12:48:47.102Z,4.28
2018-02-24T12:49:50.413Z,5.82
2018-02-24T12:50:52.974Z,4.07
2018-02-24T12:51:56.242Z,4.72
2018-02-24T12:52:59.528Z,7.80
2018-02-24T12:54:02.826Z,5.00
2018-02-24T12:55:05.434Z,6.85
2018-02-24T12:56:07.954Z,9.35
2018-02-24T12:57:10.554Z,6.62
2018-02-24T12:58:13.109Z,6.12
2018-02-24T12:59:15.622Z,5.28
2018-02-24T13:00:18.138Z,3.35
2018-02-24T13:01:20.652Z,7.40
2018-02-24T13:02:23.195Z,5.05
2018-02-24T13:03:25.730Z,4.95
2018-02-24T13:04:28.266Z,6.10
2018-02-24T13:05:31.586Z,4.40
2018-02-24T13:06:34.656Z,4.05
2018-02-24T13:07:37.182Z,3.85
2018-02-24T13:08:39.696Z,5.10
2018-02-24T13:09:42.206Z,3.85
2018-02-24T13:10:44.764Z,6.82
2018-02-24T13:11:47.277Z,6.35
2018-02-24T13:12:49.793Z,21.08
2018-02-24T13:13:52.319Z,6.00
2018-02-24T13:14:54.837Z,5.50
2018-02-24T13:15:57.389Z,5.10
2018-02-24T13:16:59.901Z,7.62
2018-02-24T13:18:03.182Z,5.40
2018-02-24T13:19:06.472Z,7.45
2018-02-24T13:20:09.780Z,4.35
2018-02-24T13:21:12.349Z,3.10
2018-02-24T13:22:14.903Z,5.30
2018-02-24T13:23:17.417Z,4.82
2018-02-24T13:24:19.962Z,4.50
2018-02-24T13:25:22.511Z,3.92
2018-02-24T13:26:25.017Z,4.87
2018-02-24T13:27:27.528Z,5.28
2018-02-24T13:28:30.082Z,3.80
2018-02-24T13:29:33.366Z,3.78
2018-02-24T13:30:36.689Z,4.75
2018-02-24T13:31:39.196Z,4.32
2018-02-24T13:32:41.850Z,5.47
2018-02-24T13:33:44.343Z,6.65
2018-02-24T13:34:47.630Z,3.50